createdAt,value
2016-01-17T00:00:31.510Z,1014.47
2016-01-17T00:01:31.513Z,1014.43
2016-01-17T00:02:31.468Z,1014.46
2016-01-17T00:03:31.472Z,1014.47
2016-01-17T00:04:31.412Z,1014.47
2016-01-17T00:05:31.383Z,1014.41
2016-01-17T00:06:31.324Z,1014.39
2016-01-17T00:07:31.326Z,1014.43
2016-01-17T00:08:31.234Z,1014.44
2016-01-17T00:09:31.222Z,1014.4
2016-01-17T00:10:31.162Z,1014.44
2016-01-17T00:11:31.149Z,1014.43
2016-01-17T00:12:31.104Z,1014.49
2016-01-17T00:13:31.061Z,1014.44
2016-01-17T00:14:31.032Z,1014.43
2016-01-17T00:15:31.035Z,1014.49
2016-01-17T00:16:30.959Z,1014.47
2016-01-17T00:17:30.947Z,1014.47
2016-01-17T00:18:30.964Z,1014.47
2016-01-17T00:19:30.952Z,1014.48
2016-01-17T00:20:30.845Z,1014.49
2016-01-17T00:21:30.832Z,1014.51
2016-01-17T00:22:30.803Z,1014.51
2016-01-17T00:23:30.744Z,1014.51
2016-01-17T00:24:30.730Z,1014.53
2016-01-17T00:25:30.702Z,1014.49
2016-01-17T00:26:30.675Z,1014.49
2016-01-17T00:27:30.644Z,1014.49
2016-01-17T00:28:30.601Z,1014.46
2016-01-17T00:29:30.557Z,1014.49
2016-01-17T00:30:30.528Z,1014.47
2016-01-17T00:31:30.469Z,1014.52
2016-01-17T00:32:30.455Z,1014.49
2016-01-17T00:33:30.443Z,1014.51
2016-01-17T00:34:30.399Z,1014.49
2016-01-17T00:35:30.370Z,1014.51
2016-01-17T00:36:30.341Z,1014.5
2016-01-17T00:37:30.313Z,1014.5
2016-01-17T00:38:30.284Z,1014.51
2016-01-17T00:39:30.224Z,1014.53
2016-01-17T00:40:30.196Z,1014.55
2016-01-17T00:41:30.152Z,1014.54
2016-01-17T00:42:30.123Z,1014.52
2016-01-17T00:43:30.095Z,1014.52
2016-01-17T00:44:30.113Z,1014.52
2016-01-17T00:45:30.054Z,1014.51
2016-01-17T00:46:30.009Z,1014.51
2016-01-17T00:47:29.965Z,1014.51
2016-01-17T00:48:29.936Z,1014.47
2016-01-17T00:49:29.908Z,1014.5
2016-01-17T00:50:29.864Z,1014.49
2016-01-17T00:51:29.835Z,1014.47
2016-01-17T00:52:29.744Z,1014.49
2016-01-17T00:53:29.778Z,1014.49
2016-01-17T00:54:29.733Z,1014.55
2016-01-17T00:55:29.721Z,1014.5
2016-01-17T00:56:29.692Z,1014.51
2016-01-17T00:57:29.648Z,1014.5
2016-01-17T00:58:29.572Z,1014.5
2016-01-17T00:59:29.591Z,1014.52
2016-01-17T01:00:29.547Z,1014.51
2016-01-17T01:01:29.487Z,1014.52
2016-01-17T01:02:29.479Z,1014.54
2016-01-17T01:03:29.403Z,1014.53
2016-01-17T01:04:29.438Z,1014.48
2016-01-17T01:05:29.377Z,1014.51
2016-01-17T01:06:29.301Z,1014.51
2016-01-17T01:07:29.305Z,1014.49
2016-01-17T01:08:29.276Z,1014.54
2016-01-17T01:09:29.295Z,1014.58
2016-01-17T01:10:29.172Z,1014.58
2016-01-17T01:11:29.159Z,1014.59
2016-01-17T01:12:29.162Z,1014.64
2016-01-17T01:13:29.087Z,1014.64
2016-01-17T01:14:29.058Z,1014.63
2016-01-17T01:15:29.061Z,1014.68
2016-01-17T01:16:29.064Z,1014.63
2016-01-17T01:17:28.942Z,1014.65
2016-01-17T01:18:28.944Z,1014.61
2016-01-17T01:19:28.900Z,1014.66
2016-01-17T01:20:28.870Z,1014.64
2016-01-17T01:21:40.389Z,1014.68
2016-01-17T01:22:28.814Z,1014.64
2016-01-17T01:23:28.753Z,1014.64
2016-01-17T01:24:28.741Z,1014.64
2016-01-17T01:25:28.744Z,1014.61
2016-01-17T01:26:28.669Z,1014.66
2016-01-17T01:27:28.639Z,1014.64
2016-01-17T01:28:28.627Z,1014.69
2016-01-17T01:29:28.535Z,1014.69
2016-01-17T01:30:28.523Z,1014.74
2016-01-17T01:31:28.479Z,1014.72
2016-01-17T01:32:28.449Z,1014.72
2016-01-17T01:33:28.421Z,1014.78
2016-01-17T01:34:28.362Z,1014.78
2016-01-17T01:35:28.333Z,1014.79
2016-01-17T01:36:28.321Z,1014.79
2016-01-17T01:37:28.307Z,1014.8
2016-01-17T01:38:28.249Z,1014.82
2016-01-17T01:39:28.282Z,1014.8
2016-01-17T01:40:28.175Z,1014.81
2016-01-17T01:41:28.131Z,1014.83
2016-01-17T01:42:28.134Z,1014.85
2016-01-17T01:43:28.090Z,1014.85
2016-01-17T01:44:28.043Z,1014.88
2016-01-17T01:45:28.029Z,1014.89
2016-01-17T01:46:27.986Z,1014.88
2016-01-17T01:47:27.941Z,1014.86
2016-01-17T01:48:27.929Z,1014.86
2016-01-17T01:49:27.901Z,1014.88
2016-01-17T01:50:27.856Z,1014.85
2016-01-17T01:51:27.860Z,1014.83
2016-01-17T01:52:27.785Z,1014.87
2016-01-17T01:53:27.771Z,1014.87
2016-01-17T01:54:27.743Z,1014.82
2016-01-17T01:55:27.668Z,1014.85
2016-01-17T01:56:27.671Z,1014.87
2016-01-17T01:57:27.641Z,1014.85
2016-01-17T01:58:27.566Z,1014.88
2016-01-17T01:59:27.538Z,1014.9
2016-01-17T02:00:27.509Z,1014.86
2016-01-17T02:01:27.496Z,1014.89
2016-01-17T02:02:27.468Z,1014.91
2016-01-17T02:03:27.440Z,1014.88
2016-01-17T02:04:27.411Z,1014.88
2016-01-17T02:05:27.366Z,1014.89
2016-01-17T02:06:27.307Z,1014.86
2016-01-17T02:07:27.310Z,1014.88
2016-01-17T02:08:27.265Z,1014.86
2016-01-17T02:09:27.221Z,1014.93
2016-01-17T02:10:27.208Z,1014.87
2016-01-17T02:11:27.165Z,1014.87
2016-01-17T02:12:27.135Z,1014.91
2016-01-17T02:13:27.138Z,1014.91
2016-01-17T02:14:27.062Z,1014.88
2016-01-17T02:15:27.035Z,1014.89
2016-01-17T02:16:27.006Z,1014.94
2016-01-17T02:17:26.945Z,1014.9
2016-01-17T02:18:26.933Z,1014.91
2016-01-17T02:19:26.889Z,1014.88
2016-01-17T02:20:26.845Z,1014.9
2016-01-17T02:21:26.831Z,1014.9
2016-01-17T02:22:26.787Z,1014.87
2016-01-17T02:23:26.774Z,1014.87
2016-01-17T02:24:26.730Z,1014.85
2016-01-17T02:25:26.686Z,1014.85
2016-01-17T02:26:26.642Z,1014.86
2016-01-17T02:27:26.613Z,1014.87
2016-01-17T02:28:26.600Z,1014.85
2016-01-17T02:29:26.541Z,1014.86
2016-01-17T02:30:26.528Z,1014.85
2016-01-17T02:31:26.499Z,1014.87
2016-01-17T02:32:26.455Z,1014.86
2016-01-17T02:33:26.442Z,1014.88
2016-01-17T02:34:26.398Z,1014.88
2016-01-17T02:35:26.385Z,1014.92
2016-01-17T02:36:26.324Z,1014.92
2016-01-17T02:37:26.281Z,1014.94
2016-01-17T02:38:26.237Z,1014.91
2016-01-17T02:39:26.207Z,1014.89
2016-01-17T02:40:26.226Z,1014.89
2016-01-17T02:41:26.167Z,1014.84
2016-01-17T02:42:26.123Z,1014.87
2016-01-17T02:43:26.094Z,1014.84
2016-01-17T02:44:26.066Z,1014.84
2016-01-17T02:45:26.021Z,1014.83
2016-01-17T02:46:25.962Z,1014.84
2016-01-17T02:47:25.948Z,1014.83
2016-01-17T02:48:25.889Z,1014.85
2016-01-17T02:49:25.891Z,1014.84
2016-01-17T02:50:25.862Z,1014.86
2016-01-17T02:51:25.819Z,1014.84
2016-01-17T02:52:25.759Z,1014.89
2016-01-17T02:53:25.746Z,1014.88
2016-01-17T02:54:25.733Z,1014.88
2016-01-17T02:55:25.705Z,1014.9
2016-01-17T02:56:25.661Z,1014.89
2016-01-17T02:57:25.617Z,1014.91
2016-01-17T02:58:25.603Z,1014.87
2016-01-17T02:59:25.559Z,1014.91
2016-01-17T03:00:25.531Z,1014.89
2016-01-17T03:01:25.471Z,1014.86
2016-01-17T03:02:25.458Z,1014.85
2016-01-17T03:03:25.414Z,1014.85
2016-01-17T03:04:25.385Z,1014.87
2016-01-17T03:05:25.325Z,1014.86
2016-01-17T03:06:25.296Z,1014.89
2016-01-17T03:07:25.300Z,1014.87
2016-01-17T03:08:25.255Z,1014.88
2016-01-17T03:09:25.243Z,1014.89
2016-01-17T03:10:25.307Z,1014.9
2016-01-17T03:11:25.154Z,1014.88
2016-01-17T03:12:25.157Z,1014.9
2016-01-17T03:13:25.096Z,1014.9
2016-01-17T03:14:25.068Z,1014.85
2016-01-17T03:15:25.040Z,1014.87
2016-01-17T03:16:25.042Z,1014.85
2016-01-17T03:17:24.964Z,1014.85
2016-01-17T03:18:24.935Z,1014.87
2016-01-17T03:19:24.876Z,1014.86
2016-01-17T03:20:24.831Z,1014.84
2016-01-17T03:21:24.850Z,1014.88
2016-01-17T03:22:24.759Z,1014.86
2016-01-17T03:23:24.781Z,1014.83
2016-01-17T03:24:24.801Z,1014.89
2016-01-17T03:25:24.726Z,1014.92
2016-01-17T03:26:24.666Z,1014.98
2016-01-17T03:27:24.701Z,1014.95
2016-01-17T03:28:24.564Z,1014.99
2016-01-17T03:29:24.628Z,1015
2016-01-17T03:30:24.522Z,1015.01
2016-01-17T03:31:24.494Z,1015.03
2016-01-17T03:32:24.449Z,1015.03
2016-01-17T03:33:24.421Z,1014.98
2016-01-17T03:34:24.407Z,1014.98
2016-01-17T03:35:24.348Z,1015.01
2016-01-17T03:36:24.319Z,1014.99
2016-01-17T03:37:24.291Z,1015.01
2016-01-17T03:38:24.293Z,1015
2016-01-17T03:39:24.249Z,1015.01
2016-01-17T03:40:24.142Z,1015.05
2016-01-17T03:41:24.130Z,1015.04
2016-01-17T03:42:24.134Z,1015.07
2016-01-17T03:43:24.121Z,1015.06
2016-01-17T03:44:24.077Z,1015.05
2016-01-17T03:45:24.048Z,1015.02
2016-01-17T03:46:24.004Z,1015.02
2016-01-17T03:47:23.975Z,1015.04
2016-01-17T03:48:23.947Z,1015.03
2016-01-17T03:49:23.855Z,1014.99
2016-01-17T03:50:23.843Z,1015.03
2016-01-17T03:51:23.830Z,1015.03
2016-01-17T03:52:23.786Z,1015
2016-01-17T03:53:23.741Z,1015.02
2016-01-17T03:54:23.697Z,1015.01
2016-01-17T03:55:23.685Z,1015.03
2016-01-17T03:56:23.625Z,1014.99
2016-01-17T03:57:23.597Z,1015
2016-01-17T03:58:23.583Z,1015
2016-01-17T03:59:23.571Z,1015.01
2016-01-17T04:00:23.496Z,1015.03
2016-01-17T04:01:23.482Z,1015
2016-01-17T04:02:23.453Z,1015.09
2016-01-17T04:03:23.441Z,1015.04
2016-01-17T04:04:23.382Z,1015.09
2016-01-17T04:05:23.321Z,1015.1
2016-01-17T04:06:23.324Z,1015.07
2016-01-17T04:07:23.295Z,1015.12
2016-01-17T04:08:23.251Z,1015.15
2016-01-17T04:09:23.207Z,1015.06
2016-01-17T04:10:23.195Z,1015.07
2016-01-17T04:11:23.228Z,1015.1
2016-01-17T04:12:23.137Z,1015.08
2016-01-17T04:13:23.139Z,1015.1
2016-01-17T04:14:23.048Z,1015.09
2016-01-17T04:15:23.036Z,1015.1
2016-01-17T04:16:23.023Z,1015.1
2016-01-17T04:17:22.995Z,1015.11
2016-01-17T04:18:22.950Z,1015.11
2016-01-17T04:19:22.890Z,1015.09
2016-01-17T04:20:22.847Z,1015.08
2016-01-17T04:21:22.802Z,1015.08
2016-01-17T04:22:22.820Z,1015.05
2016-01-17T04:23:22.758Z,1015.06
2016-01-17T04:24:22.682Z,1015.05
2016-01-17T04:25:22.685Z,1015.01
2016-01-17T04:26:22.703Z,1015.01
2016-01-17T04:27:22.613Z,1015.02
2016-01-17T04:28:22.568Z,1015
2016-01-17T04:29:22.555Z,1014.97
2016-01-17T04:30:22.589Z,1014.99
2016-01-17T04:31:22.482Z,1014.97
2016-01-17T04:32:22.454Z,1014.97
2016-01-17T04:33:22.425Z,1014.99
2016-01-17T04:34:22.460Z,1015
2016-01-17T04:35:22.338Z,1015
2016-01-17T04:36:22.308Z,1015
2016-01-17T04:37:22.310Z,1014.97
2016-01-17T04:38:22.251Z,1014.98
2016-01-17T04:39:22.239Z,1014.96
2016-01-17T04:40:22.226Z,1014.99
2016-01-17T04:41:22.182Z,1014.98
2016-01-17T04:42:22.137Z,1015.01
2016-01-17T04:43:22.046Z,1014.97
2016-01-17T04:44:22.033Z,1015.02
2016-01-17T04:45:22.005Z,1014.97
2016-01-17T04:46:21.960Z,1015
2016-01-17T04:47:21.917Z,1015.01
2016-01-17T04:48:21.903Z,1015.03
2016-01-17T04:49:21.906Z,1015.04
2016-01-17T04:50:21.815Z,1015.01
2016-01-17T04:51:21.802Z,1015.01
2016-01-17T04:52:21.837Z,1015.02
2016-01-17T04:53:21.792Z,1015.06
2016-01-17T04:54:21.747Z,1015.04
2016-01-17T04:55:21.656Z,1015.09
2016-01-17T04:56:21.660Z,1015.06
2016-01-17T04:57:21.647Z,1015.07
2016-01-17T04:58:21.587Z,1015.09
2016-01-17T04:59:21.559Z,1015.11
2016-01-17T05:00:21.484Z,1015.15
2016-01-17T05:01:21.471Z,1015.14
2016-01-17T05:02:21.474Z,1015.11
2016-01-17T05:03:21.414Z,1015.07
2016-01-17T05:04:21.385Z,1015.11
2016-01-17T05:05:21.404Z,1015.15
2016-01-17T05:06:21.329Z,1015.1
2016-01-17T05:07:21.301Z,1015.08
2016-01-17T05:08:21.240Z,1015.09
2016-01-17T05:09:21.259Z,1015.1
2016-01-17T05:10:21.151Z,1015.09
2016-01-17T05:11:21.154Z,1015.13
2016-01-17T05:12:21.110Z,1015.1
2016-01-17T05:13:21.034Z,1015.08
2016-01-17T05:14:21.006Z,1015.12
2016-01-17T05:15:21.009Z,1015.15
2016-01-17T05:16:20.981Z,1015.08
2016-01-17T05:17:20.967Z,1015.15
2016-01-17T05:18:20.924Z,1015.17
2016-01-17T05:19:20.848Z,1015.19
2016-01-17T05:20:20.817Z,1015.13
2016-01-17T05:21:20.850Z,1015.21
2016-01-17T05:22:20.744Z,1015.21
2016-01-17T05:23:20.747Z,1015.2
2016-01-17T05:24:20.750Z,1015.26
2016-01-17T05:25:20.638Z,1015.24
2016-01-17T05:26:20.611Z,1015.26
2016-01-17T05:27:20.537Z,1015.24
2016-01-17T05:28:20.527Z,1015.28
2016-01-17T05:29:20.485Z,1015.3
2016-01-17T05:30:20.447Z,1015.26
2016-01-17T05:31:20.367Z,1015.28
2016-01-17T05:32:20.365Z,1015.29
2016-01-17T05:33:20.300Z,1015.29
2016-01-17T05:34:20.268Z,1015.25
2016-01-17T05:35:20.251Z,1015.26
2016-01-17T05:36:20.205Z,1015.28
2016-01-17T05:37:20.159Z,1015.31
2016-01-17T05:38:20.127Z,1015.3
2016-01-17T05:39:20.128Z,1015.3
2016-01-17T05:40:20.068Z,1015.31
2016-01-17T05:41:20.022Z,1015.35
2016-01-17T05:42:20.056Z,1015.31
2016-01-17T05:43:20.010Z,1015.34
2016-01-17T05:44:19.920Z,1015.35
2016-01-17T05:45:19.906Z,1015.35
2016-01-17T05:46:19.862Z,1015.36
2016-01-17T05:47:19.818Z,1015.37
2016-01-17T05:48:19.836Z,1015.38
2016-01-17T05:49:19.744Z,1015.42
2016-01-17T05:50:19.717Z,1015.43
2016-01-17T05:51:19.703Z,1015.45
2016-01-17T05:52:19.643Z,1015.44
2016-01-17T05:53:19.647Z,1015.44
2016-01-17T05:54:19.586Z,1015.45
2016-01-17T05:55:19.588Z,1015.44
2016-01-17T05:56:19.529Z,1015.47
2016-01-17T05:57:19.485Z,1015.45
2016-01-17T05:58:19.441Z,1015.49
2016-01-17T05:59:19.444Z,1015.51
2016-01-17T06:00:19.384Z,1015.47
2016-01-17T06:01:19.371Z,1015.48
2016-01-17T06:02:19.343Z,1015.48
2016-01-17T06:03:19.361Z,1015.51
2016-01-17T06:04:19.270Z,1015.54
2016-01-17T06:05:19.209Z,1015.54
2016-01-17T06:06:19.166Z,1015.53
2016-01-17T06:07:19.198Z,1015.57
2016-01-17T06:08:19.123Z,1015.59
2016-01-17T06:09:19.079Z,1015.59
2016-01-17T06:10:19.020Z,1015.59
2016-01-17T06:11:19.039Z,1015.6
2016-01-17T06:12:19.025Z,1015.59
2016-01-17T06:13:18.950Z,1015.58
2016-01-17T06:14:18.953Z,1015.64
2016-01-17T06:15:18.893Z,1015.62
2016-01-17T06:16:18.848Z,1015.62
2016-01-17T06:17:18.820Z,1015.63
2016-01-17T06:18:18.854Z,1015.61
2016-01-17T06:19:18.763Z,1015.62
2016-01-17T06:20:18.734Z,1015.64
2016-01-17T06:21:18.659Z,1015.66
2016-01-17T06:22:18.662Z,1015.64
2016-01-17T06:23:18.680Z,1015.65
2016-01-17T06:24:18.589Z,1015.68
2016-01-17T06:25:18.560Z,1015.7
2016-01-17T06:26:18.501Z,1015.68
2016-01-17T06:27:18.519Z,1015.73
2016-01-17T06:28:18.505Z,1015.69
2016-01-17T06:29:18.415Z,1015.71
2016-01-17T06:30:18.386Z,1015.72
2016-01-17T06:31:18.311Z,1015.72
2016-01-17T06:32:18.360Z,1015.77
2016-01-17T06:33:18.269Z,1015.76
2016-01-17T06:34:18.209Z,1015.8
2016-01-17T06:35:18.197Z,1015.84
2016-01-17T06:36:18.184Z,1015.82
2016-01-17T06:37:18.124Z,1015.88
2016-01-17T06:38:18.112Z,1015.9
2016-01-17T06:39:18.098Z,1015.94
2016-01-17T06:40:18.023Z,1015.95
2016-01-17T06:41:18.010Z,1015.98
2016-01-17T06:42:17.966Z,1016
2016-01-17T06:43:17.968Z,1015.99
2016-01-17T06:44:17.877Z,1015.99
2016-01-17T06:45:17.848Z,1016.03
2016-01-17T06:46:17.851Z,1016.02
2016-01-17T06:47:17.823Z,1016.04
2016-01-17T06:48:17.764Z,1016.02
2016-01-17T06:49:17.734Z,1016.07
2016-01-17T06:50:17.737Z,1016.07
2016-01-17T06:51:17.677Z,1016.11
2016-01-17T06:52:17.618Z,1016.11
2016-01-17T06:53:17.636Z,1016.15
2016-01-17T06:54:17.544Z,1016.15
2016-01-17T06:55:17.539Z,1016.17
2016-01-17T06:56:17.511Z,1016.21
2016-01-17T06:57:17.452Z,1016.22
2016-01-17T06:58:17.454Z,1016.23
2016-01-17T06:59:17.394Z,1016.19
2016-01-17T07:00:17.365Z,1016.23
2016-01-17T07:01:17.338Z,1016.26
2016-01-17T07:02:17.356Z,1016.31
2016-01-17T07:03:17.266Z,1016.29
2016-01-17T07:04:17.237Z,1016.29
2016-01-17T07:05:17.208Z,1016.27
2016-01-17T07:06:17.133Z,1016.29
2016-01-17T07:07:17.104Z,1016.3
2016-01-17T07:08:17.108Z,1016.31
2016-01-17T07:09:17.142Z,1016.36
2016-01-17T07:10:17.066Z,1016.35
2016-01-17T07:11:16.975Z,1016.37
2016-01-17T07:12:16.961Z,1016.34
2016-01-17T07:13:16.902Z,1016.39
2016-01-17T07:14:16.874Z,1016.39
2016-01-17T07:15:16.877Z,1016.41
2016-01-17T07:16:16.832Z,1016.4
2016-01-17T07:17:16.772Z,1016.42
2016-01-17T07:18:16.759Z,1016.46
2016-01-17T07:19:16.699Z,1016.48
2016-01-17T07:20:16.671Z,1016.46
2016-01-17T07:21:16.658Z,1016.53
2016-01-17T07:22:16.630Z,1016.53
2016-01-17T07:23:16.617Z,1016.53
2016-01-17T07:24:16.526Z,1016.56
2016-01-17T07:25:16.560Z,1016.59
2016-01-17T07:26:16.532Z,1016.55
2016-01-17T07:27:16.487Z,1016.54
2016-01-17T07:28:16.409Z,1016.63
2016-01-17T07:29:16.365Z,1016.61
2016-01-17T07:30:16.351Z,1016.63
2016-01-17T07:31:16.308Z,1016.58
2016-01-17T07:32:16.279Z,1016.61
2016-01-17T07:33:16.235Z,1016.59
2016-01-17T07:34:16.237Z,1016.59
2016-01-17T07:35:16.193Z,1016.64
2016-01-17T07:36:16.134Z,1016.64
2016-01-17T07:37:16.105Z,1016.64
2016-01-17T07:38:16.123Z,1016.67
2016-01-17T07:39:16.095Z,1016.7
2016-01-17T07:40:16.004Z,1016.71
2016-01-17T07:41:15.976Z,1016.68
2016-01-17T07:42:15.931Z,1016.72
2016-01-17T07:43:15.903Z,1016.72
2016-01-17T07:44:15.875Z,1016.76
2016-01-17T07:45:15.815Z,1016.73
2016-01-17T07:46:15.786Z,1016.75
2016-01-17T07:47:15.772Z,1016.76
2016-01-17T07:48:15.760Z,1016.8
2016-01-17T07:49:15.716Z,1016.84
2016-01-17T07:50:15.641Z,1016.82
2016-01-17T07:51:15.705Z,1016.85
2016-01-17T07:52:15.631Z,1016.88
2016-01-17T07:53:15.586Z,1016.87
2016-01-17T07:54:15.589Z,1016.87
2016-01-17T07:55:15.514Z,1016.89
2016-01-17T07:56:15.469Z,1016.94
2016-01-17T07:57:15.425Z,1016.9
2016-01-17T07:58:15.397Z,1016.94
2016-01-17T07:59:15.336Z,1016.93
2016-01-17T08:00:15.308Z,1016.91
2016-01-17T08:01:15.295Z,1016.93
2016-01-17T08:02:15.283Z,1016.92
2016-01-17T08:03:15.207Z,1016.93
2016-01-17T08:04:15.179Z,1016.97
2016-01-17T08:05:15.135Z,1016.99
2016-01-17T08:06:15.137Z,1016.99
2016-01-17T08:07:15.093Z,1016.99
2016-01-17T08:08:15.064Z,1017.02
2016-01-17T08:09:15.051Z,1017.02
2016-01-17T08:10:14.991Z,1017.01
2016-01-17T08:11:14.962Z,1017.02
2016-01-17T08:12:14.934Z,1017.05
2016-01-17T08:13:14.874Z,1017.07
2016-01-17T08:14:14.846Z,1017.09
2016-01-17T08:15:14.848Z,1017.09
2016-01-17T08:16:14.867Z,1017.09
2016-01-17T08:17:14.776Z,1017.12
2016-01-17T08:18:14.731Z,1017.07
2016-01-17T08:19:14.672Z,1017.14
2016-01-17T08:20:14.628Z,1017.14
2016-01-17T08:21:14.662Z,1017.14
2016-01-17T08:22:14.602Z,1017.21
2016-01-17T08:23:14.589Z,1017.21
2016-01-17T08:24:14.591Z,1017.22
2016-01-17T08:25:14.485Z,1017.23
2016-01-17T08:26:14.425Z,1017.24
2016-01-17T08:27:14.397Z,1017.22
2016-01-17T08:28:14.399Z,1017.23
2016-01-17T08:29:14.339Z,1017.27
2016-01-17T08:30:14.327Z,1017.28
2016-01-17T08:31:14.282Z,1017.23
2016-01-17T08:32:14.269Z,1017.26
2016-01-17T08:33:14.288Z,1017.31
2016-01-17T08:34:14.197Z,1017.35
2016-01-17T08:35:14.137Z,1017.34
2016-01-17T08:36:14.140Z,1017.34
2016-01-17T08:37:14.095Z,1017.34
2016-01-17T08:38:14.099Z,1017.36
2016-01-17T08:39:14.007Z,1017.36
2016-01-17T08:40:14.010Z,1017.32
2016-01-17T08:41:13.934Z,1017.35
2016-01-17T08:42:13.906Z,1017.39
2016-01-17T08:43:13.909Z,1017.39
2016-01-17T08:44:13.848Z,1017.4
2016-01-17T08:45:13.835Z,1017.44
2016-01-17T08:46:13.792Z,1017.47
2016-01-17T08:47:13.810Z,1017.43
2016-01-17T08:48:13.734Z,1017.47
2016-01-17T08:49:13.675Z,1017.46
2016-01-17T08:50:13.709Z,1017.44
2016-01-17T08:51:13.633Z,1017.49
2016-01-17T08:52:13.573Z,1017.44
2016-01-17T08:53:13.560Z,1017.44
2016-01-17T08:54:13.547Z,1017.45
2016-01-17T08:55:13.472Z,1017.45
2016-01-17T08:56:13.444Z,1017.47
2016-01-17T08:57:13.399Z,1017.47
2016-01-17T08:58:13.356Z,1017.49
2016-01-17T08:59:13.342Z,1017.47
2016-01-17T09:00:13.314Z,1017.45
2016-01-17T09:01:13.300Z,1017.51
2016-01-17T09:02:13.303Z,1017.5
2016-01-17T09:03:13.197Z,1017.49
2016-01-17T09:04:13.183Z,1017.51
2016-01-17T09:05:13.139Z,1017.54
2016-01-17T09:06:13.111Z,1017.56
2016-01-17T09:07:13.082Z,1017.57
2016-01-17T09:08:13.022Z,1017.58
2016-01-17T09:09:13.010Z,1017.56
2016-01-17T09:10:13.012Z,1017.61
2016-01-17T09:11:12.922Z,1017.63
2016-01-17T09:12:12.923Z,1017.65
2016-01-17T09:13:12.879Z,1017.66
2016-01-17T09:14:12.851Z,1017.72
2016-01-17T09:15:12.807Z,1017.74
2016-01-17T09:16:12.778Z,1017.77
2016-01-17T09:17:12.765Z,1017.76
2016-01-17T09:18:12.753Z,1017.78
2016-01-17T09:19:12.645Z,1017.79
2016-01-17T09:20:12.633Z,1017.81
2016-01-17T09:21:12.620Z,1017.84
2016-01-17T09:22:12.545Z,1017.88
2016-01-17T09:23:12.578Z,1017.92
2016-01-17T09:24:12.550Z,1017.87
2016-01-17T09:25:12.459Z,1017.92
2016-01-17T09:26:12.461Z,1017.93
2016-01-17T09:27:12.402Z,1017.95
2016-01-17T09:28:12.389Z,1017.95
2016-01-17T09:29:12.313Z,1017.95
2016-01-17T09:30:12.316Z,1017.96
2016-01-17T09:31:12.256Z,1017.97
2016-01-17T09:32:12.227Z,1017.96
2016-01-17T09:33:12.230Z,1017.99
2016-01-17T09:34:12.186Z,1017.98
2016-01-17T09:35:12.141Z,1017.96
2016-01-17T09:36:12.129Z,1017.99
2016-01-17T09:37:12.069Z,1018
2016-01-17T09:38:12.024Z,1018
2016-01-17T09:39:12.013Z,1017.98
2016-01-17T09:40:12.046Z,1017.99
2016-01-17T09:41:11.939Z,1018
2016-01-17T09:42:11.910Z,1018.05
2016-01-17T09:43:11.882Z,1018.08
2016-01-17T09:44:11.837Z,1018.04
2016-01-17T09:45:11.809Z,1018.04
2016-01-17T09:46:11.749Z,1018.09
2016-01-17T09:47:11.752Z,1018.11
2016-01-17T09:48:11.709Z,1018.11
2016-01-17T09:49:11.695Z,1018.14
2016-01-17T09:50:11.651Z,1018.12
2016-01-17T09:51:11.607Z,1018.15
2016-01-17T09:52:11.594Z,1018.12
2016-01-17T09:53:11.534Z,1018.15
2016-01-17T09:54:11.489Z,1018.15
2016-01-17T09:55:11.492Z,1018.11
2016-01-17T09:56:11.433Z,1018.18
2016-01-17T09:57:11.421Z,1018.14
2016-01-17T09:58:11.376Z,1018.15
2016-01-17T09:59:11.349Z,1018.11
2016-01-17T10:00:11.318Z,1018.17
2016-01-17T10:01:11.336Z,1018.18
2016-01-17T10:02:11.245Z,1018.16
2016-01-17T10:03:11.215Z,1018.18
2016-01-17T10:04:11.171Z,1018.19
2016-01-17T10:05:11.128Z,1018.21
2016-01-17T10:06:11.131Z,1018.24
2016-01-17T10:07:11.071Z,1018.22
2016-01-17T10:08:11.089Z,1018.29
2016-01-17T10:09:11.029Z,1018.23
2016-01-17T10:10:10.985Z,1018.29
2016-01-17T10:11:10.957Z,1018.26
2016-01-17T10:12:10.898Z,1018.25
2016-01-17T10:13:10.885Z,1018.29
2016-01-17T10:14:10.840Z,1018.32
2016-01-17T10:15:10.842Z,1018.27
2016-01-17T10:16:10.767Z,1018.31
2016-01-17T10:17:10.739Z,1018.32
2016-01-17T10:18:10.710Z,1018.31
2016-01-17T10:19:10.697Z,1018.3
2016-01-17T10:20:10.653Z,1018.31
2016-01-17T10:21:10.593Z,1018.33
2016-01-17T10:22:10.581Z,1018.26
2016-01-17T10:23:10.536Z,1018.27
2016-01-17T10:24:10.523Z,1018.29
2016-01-17T10:25:10.495Z,1018.32
2016-01-17T10:26:10.467Z,1018.31
2016-01-17T10:27:10.391Z,1018.34
2016-01-17T10:28:10.394Z,1018.32
2016-01-17T10:29:10.412Z,1018.34
2016-01-17T10:30:10.290Z,1018.33
2016-01-17T10:31:10.338Z,1018.36
2016-01-17T10:32:10.264Z,1018.39
2016-01-17T10:33:10.236Z,1018.4
2016-01-17T10:34:10.175Z,1018.43
2016-01-17T10:35:10.178Z,1018.45
2016-01-17T10:36:10.119Z,1018.44
2016-01-17T10:37:10.058Z,1018.4
2016-01-17T10:38:10.030Z,1018.42
2016-01-17T10:39:10.032Z,1018.45
2016-01-17T10:40:09.988Z,1018.43
2016-01-17T10:41:09.929Z,1018.45
2016-01-17T10:42:09.885Z,1018.45
2016-01-17T10:43:09.871Z,1018.42
2016-01-17T10:44:09.843Z,1018.46
2016-01-17T10:45:09.876Z,1018.51
2016-01-17T10:46:09.848Z,1018.51
2016-01-17T10:47:09.742Z,1018.56
2016-01-17T10:48:09.745Z,1018.56
2016-01-17T10:49:09.716Z,1018.58
2016-01-17T10:50:09.656Z,1018.57
2016-01-17T10:51:09.596Z,1018.56
2016-01-17T10:52:09.584Z,1018.57
2016-01-17T10:53:09.539Z,1018.59
2016-01-17T10:54:09.511Z,1018.55
2016-01-17T10:55:09.528Z,1018.56
2016-01-17T10:56:09.453Z,1018.57
2016-01-17T10:57:09.440Z,1018.57
2016-01-17T10:58:09.364Z,1018.53
2016-01-17T10:59:09.352Z,1018.58
2016-01-17T11:00:09.323Z,1018.57
2016-01-17T11:01:09.279Z,1018.59
2016-01-17T11:02:09.250Z,1018.57
2016-01-17T11:03:09.222Z,1018.58
2016-01-17T11:04:09.147Z,1018.6
2016-01-17T11:05:09.118Z,1018.58
2016-01-17T11:06:09.121Z,1018.6
2016-01-17T11:07:09.108Z,1018.6
2016-01-17T11:08:09.032Z,1018.55
2016-01-17T11:09:09.035Z,1018.59
2016-01-17T11:10:08.960Z,1018.59
2016-01-17T11:11:08.916Z,1018.59
2016-01-17T11:12:08.934Z,1018.59
2016-01-17T11:13:08.890Z,1018.63
2016-01-17T11:14:08.860Z,1018.68
2016-01-17T11:15:08.785Z,1018.64
2016-01-17T11:16:08.788Z,1018.63
2016-01-17T11:17:08.728Z,1018.66
2016-01-17T11:18:08.700Z,1018.65
2016-01-17T11:19:08.718Z,1018.65
2016-01-17T11:20:08.643Z,1018.67
2016-01-17T11:21:08.614Z,1018.66
2016-01-17T11:22:08.617Z,1018.68
2016-01-17T11:23:08.589Z,1018.69
2016-01-17T11:24:08.497Z,1018.67
2016-01-17T11:25:08.469Z,1018.71
2016-01-17T11:26:08.440Z,1018.67
2016-01-17T11:27:08.428Z,1018.68
2016-01-17T11:28:08.383Z,1018.65
2016-01-17T11:29:08.355Z,1018.67
2016-01-17T11:30:08.342Z,1018.69
2016-01-17T11:31:08.281Z,1018.66
2016-01-17T11:32:08.238Z,1018.68
2016-01-17T11:33:08.225Z,1018.68
2016-01-17T11:34:08.196Z,1018.69
2016-01-17T11:35:08.152Z,1018.71
2016-01-17T11:36:08.123Z,1018.73
2016-01-17T11:37:08.157Z,1018.73
2016-01-17T11:38:08.066Z,1018.7
2016-01-17T11:39:08.022Z,1018.74
2016-01-17T11:40:07.962Z,1018.75
2016-01-17T11:41:07.965Z,1018.71
2016-01-17T11:42:07.936Z,1018.78
2016-01-17T11:43:07.938Z,1018.78
2016-01-17T11:44:07.848Z,1018.78
2016-01-17T11:45:07.866Z,1018.8
2016-01-17T11:46:07.822Z,1018.8
2016-01-17T11:47:07.763Z,1018.79
2016-01-17T11:48:07.718Z,1018.81
2016-01-17T11:49:07.721Z,1018.79
2016-01-17T11:50:07.661Z,1018.78
2016-01-17T11:51:07.633Z,1018.84
2016-01-17T11:52:07.620Z,1018.8
2016-01-17T11:53:07.576Z,1018.82
2016-01-17T11:54:07.516Z,1018.83
2016-01-17T11:55:07.487Z,1018.81
2016-01-17T11:56:07.427Z,1018.83
2016-01-17T11:57:07.462Z,1018.86
2016-01-17T11:58:07.401Z,1018.83
2016-01-17T11:59:07.356Z,1018.87
2016-01-17T12:00:07.313Z,1018.82
2016-01-17T12:01:07.284Z,1018.88
2016-01-17T12:02:07.240Z,1018.86
2016-01-17T12:03:07.242Z,1018.9
2016-01-17T12:04:07.214Z,1018.86
2016-01-17T12:05:07.202Z,1018.87
2016-01-17T12:06:07.141Z,1018.86
2016-01-17T12:07:07.066Z,1018.81
2016-01-17T12:08:07.053Z,1018.85